sensor_id;sensor_type;location;lat;lon;timestamp;P1;durP1;ratioP1;P2;durP2;ratioP2
19059;SDS011;9663;48.996;8.334;2023-03-23T00:02:24;1.55;;;0.80;;
19059;SDS011;9663;48.996;8.334;2023-03-23T00:04:52;2.50;;;0.80;;
19059;SDS011;9663;48.996;8.334;2023-03-23T00:07:18;1.85;;;0.80;;
19059;SDS011;9663;48.996;8.334;2023-03-23T00:09:52;1.85;;;0.70;;
19059;SDS011;9663;48.996;8.334;2023-03-23T00:12:20;2.63;;;0.70;;
19059;SDS011;9663;48.996;8.334;2023-03-23T00:15:02;1.65;;;0.73;;
19059;SDS011;9663;48.996;8.334;2023-03-23T00:17:31;1.58;;;0.80;;
19059;SDS011;9663;48.996;8.334;2023-03-23T00:20:00;2.88;;;0.80;;
19059;SDS011;9663;48.996;8.334;2023-03-23T00:22:30;1.27;;;0.60;;
19059;SDS011;9663;48.996;8.334;2023-03-23T00:24:56;1.95;;;0.90;;
19059;SDS011;9663;48.996;8.334;2023-03-23T00:27:22;1.52;;;0.70;;
19059;SDS011;9663;48.996;8.334;2023-03-23T00:29:49;1.85;;;0.90;;
19059;SDS011;9663;48.996;8.334;2023-03-23T00:32:22;1.60;;;0.70;;
19059;SDS011;9663;48.996;8.334;2023-03-23T00:34:54;1.90;;;0.80;;
19059;SDS011;9663;48.996;8.334;2023-03-23T00:37:23;1.45;;;0.70;;
19059;SDS011;9663;48.996;8.334;2023-03-23T00:39:50;1.80;;;0.70;;
19059;SDS011;9663;48.996;8.334;2023-03-23T00:42:16;1.90;;;0.70;;
19059;SDS011;9663;48.996;8.334;2023-03-23T00:44:43;2.22;;;0.80;;
19059;SDS011;9663;48.996;8.334;2023-03-23T00:47:09;2.47;;;1.00;;
19059;SDS011;9663;48.996;8.334;2023-03-23T00:49:37;1.35;;;0.70;;
19059;SDS011;9663;48.996;8.334;2023-03-23T00:52:05;2.50;;;0.90;;
19059;SDS011;9663;48.996;8.334;2023-03-23T00:54:32;1.58;;;0.70;;
19059;SDS011;9663;48.996;8.334;2023-03-23T00:56:59;2.75;;;1.00;;
19059;SDS011;9663;48.996;8.334;2023-03-23T00:59:25;1.38;;;0.75;;
19059;SDS011;9663;48.996;8.334;2023-03-23T01:01:51;2.53;;;0.88;;
19059;SDS011;9663;48.996;8.334;2023-03-23T01:04:17;1.73;;;0.80;;
19059;SDS011;9663;48.996;8.334;2023-03-23T01:06:43;1.90;;;0.95;;
19059;SDS011;9663;48.996;8.334;2023-03-23T01:09:15;1.13;;;0.60;;
19059;SDS011;9663;48.996;8.334;2023-03-23T01:11:45;1.55;;;0.70;;
19059;SDS011;9663;48.996;8.334;2023-03-23T01:14:13;1.80;;;0.80;;
19059;SDS011;9663;48.996;8.334;2023-03-23T01:16:40;2.22;;;0.73;;
19059;SDS011;9663;48.996;8.334;2023-03-23T01:19:06;1.88;;;0.88;;
19059;SDS011;9663;48.996;8.334;2023-03-23T01:21:32;1.23;;;0.68;;
19059;SDS011;9663;48.996;8.334;2023-03-23T01:23:57;1.98;;;0.80;;
19059;SDS011;9663;48.996;8.334;2023-03-23T01:26:24;1.80;;;0.75;;
19059;SDS011;9663;48.996;8.334;2023-03-23T01:28:52;1.98;;;0.85;;
19059;SDS011;9663;48.996;8.334;2023-03-23T01:31:19;2.65;;;0.90;;
19059;SDS011;9663;48.996;8.334;2023-03-23T01:33:48;1.48;;;0.80;;
19059;SDS011;9663;48.996;8.334;2023-03-23T01:36:20;2.25;;;0.90;;
19059;SDS011;9663;48.996;8.334;2023-03-23T01:38:49;1.77;;;0.77;;
19059;SDS011;9663;48.996;8.334;2023-03-23T01:41:16;2.20;;;0.90;;
19059;SDS011;9663;48.996;8.334;2023-03-23T01:46:41;1.73;;;0.70;;
19059;SDS011;9663;48.996;8.334;2023-03-23T01:49:13;2.05;;;0.77;;
19059;SDS011;9663;48.996;8.334;2023-03-23T01:51:48;2.22;;;0.80;;
19059;SDS011;9663;48.996;8.334;2023-03-23T01:54:19;2.05;;;0.80;;
19059;SDS011;9663;48.996;8.334;2023-03-23T01:56:48;1.65;;;0.70;;
19059;SDS011;9663;48.996;8.334;2023-03-23T01:59:20;1.90;;;0.80;;
19059;SDS011;9663;48.996;8.334;2023-03-23T02:01:48;2.20;;;0.90;;
19059;SDS011;9663;48.996;8.334;2023-03-23T02:04:17;2.25;;;0.80;;
19059;SDS011;9663;48.996;8.334;2023-03-23T02:06:44;1.95;;;0.93;;
19059;SDS011;9663;48.996;8.334;2023-03-23T02:09:11;1.50;;;0.70;;
19059;SDS011;9663;48.996;8.334;2023-03-23T02:11:44;2.80;;;0.77;;
19059;SDS011;9663;48.996;8.334;2023-03-23T02:14:13;2.55;;;0.80;;
19059;SDS011;9663;48.996;8.334;2023-03-23T02:16:52;2.03;;;0.70;;
19059;SDS011;9663;48.996;8.334;2023-03-23T02:34:36;1.77;;;0.80;;
19059;SDS011;9663;48.996;8.334;2023-03-23T02:37:23;2.00;;;0.80;;
19059;SDS011;9663;48.996;8.334;2023-03-23T02:40:16;2.30;;;1.00;;
19059;SDS011;9663;48.996;8.334;2023-03-23T02:42:53;1.92;;;0.80;;
19059;SDS011;9663;48.996;8.334;2023-03-23T02:45:21;1.98;;;0.70;;
19059;SDS011;9663;48.996;8.334;2023-03-23T02:47:50;2.13;;;0.90;;
19059;SDS011;9663;48.996;8.334;2023-03-23T02:50:20;1.83;;;0.80;;
19059;SDS011;9663;48.996;8.334;2023-03-23T02:52:50;2.15;;;0.85;;
19059;SDS011;9663;48.996;8.334;2023-03-23T02:55:19;2.28;;;0.88;;
19059;SDS011;9663;48.996;8.334;2023-03-23T02:57:51;2.83;;;0.70;;
19059;SDS011;9663;48.996;8.334;2023-03-23T03:00:19;1.95;;;0.90;;
19059;SDS011;9663;48.996;8.334;2023-03-23T03:02:46;1.83;;;0.80;;
19059;SDS011;9663;48.996;8.334;2023-03-23T03:08:12;2.30;;;0.85;;
19059;SDS011;9663;48.996;8.334;2023-03-23T03:21:37;2.05;;;1.00;;
19059;SDS011;9663;48.996;8.334;2023-03-23T03:24:08;1.52;;;0.70;;
19059;SDS011;9663;48.996;8.334;2023-03-23T03:26:41;1.98;;;0.80;;
19059;SDS011;9663;48.996;8.334;2023-03-23T03:29:12;2.13;;;0.77;;
19059;SDS011;9663;48.996;8.334;2023-03-23T03:31:42;1.67;;;0.75;;
19059;SDS011;9663;48.996;8.334;2023-03-23T03:34:14;1.80;;;0.80;;
19059;SDS011;9663;48.996;8.334;2023-03-23T03:36:44;2.53;;;0.90;;
19059;SDS011;9663;48.996;8.334;2023-03-23T03:39:12;3.40;;;0.90;;
19059;SDS011;9663;48.996;8.334;2023-03-23T03:41:42;1.80;;;0.80;;
19059;SDS011;9663;48.996;8.334;2023-03-23T03:44:08;2.63;;;0.90;;
19059;SDS011;9663;48.996;8.334;2023-03-23T03:46:35;1.90;;;0.80;;
19059;SDS011;9663;48.996;8.334;2023-03-23T03:49:03;2.03;;;0.82;;
19059;SDS011;9663;48.996;8.334;2023-03-23T03:51:32;2.22;;;0.85;;
19059;SDS011;9663;48.996;8.334;2023-03-23T03:53:59;2.25;;;0.90;;
19059;SDS011;9663;48.996;8.334;2023-03-23T03:56:25;1.90;;;0.90;;
19059;SDS011;9663;48.996;8.334;2023-03-23T03:58:51;3.47;;;0.82;;
19059;SDS011;9663;48.996;8.334;2023-03-23T04:01:18;1.95;;;0.70;;
19059;SDS011;9663;48.996;8.334;2023-03-23T04:03:47;1.80;;;0.88;;
19059;SDS011;9663;48.996;8.334;2023-03-23T04:06:14;1.80;;;0.82;;
19059;SDS011;9663;48.996;8.334;2023-03-23T04:08:40;2.00;;;0.82;;
19059;SDS011;9663;48.996;8.334;2023-03-23T04:11:08;1.48;;;0.70;;
19059;SDS011;9663;48.996;8.334;2023-03-23T04:13:35;2.65;;;0.90;;
19059;SDS011;9663;48.996;8.334;2023-03-23T04:16:01;2.10;;;0.90;;
19059;SDS011;9663;48.996;8.334;2023-03-23T04:18:28;2.78;;;0.90;;
19059;SDS011;9663;48.996;8.334;2023-03-23T04:20:57;2.17;;;0.90;;
19059;SDS011;9663;48.996;8.334;2023-03-23T04:23:24;2.00;;;0.80;;
19059;SDS011;9663;48.996;8.334;2023-03-23T04:25:52;1.52;;;0.80;;
19059;SDS011;9663;48.996;8.334;2023-03-23T04:28:22;1.98;;;0.88;;
19059;SDS011;9663;48.996;8.334;2023-03-23T04:30:51;2.08;;;0.80;;
19059;SDS011;9663;48.996;8.334;2023-03-23T04:33:23;1.77;;;0.80;;
19059;SDS011;9663;48.996;8.334;2023-03-23T04:35:53;2.45;;;1.00;;
19059;SDS011;9663;48.996;8.334;2023-03-23T04:38:21;2.15;;;0.90;;
19059;SDS011;9663;48.996;8.334;2023-03-23T04:40:50;2.30;;;0.82;;
19059;SDS011;9663;48.996;8.334;2023-03-23T04:43:18;3.33;;;1.05;;
19059;SDS011;9663;48.996;8.334;2023-03-23T04:45:51;2.50;;;1.00;;
19059;SDS011;9663;48.996;8.334;2023-03-23T04:48:21;2.13;;;0.80;;
19059;SDS011;9663;48.996;8.334;2023-03-23T04:50:52;1.90;;;0.88;;
19059;SDS011;9663;48.996;8.334;2023-03-23T04:53:19;2.85;;;0.90;;
19059;SDS011;9663;48.996;8.334;2023-03-23T04:55:46;2.05;;;0.90;;
19059;SDS011;9663;48.996;8.334;2023-03-23T04:58:13;2.78;;;0.80;;
19059;SDS011;9663;48.996;8.334;2023-03-23T05:00:39;2.13;;;0.90;;
19059;SDS011;9663;48.996;8.334;2023-03-23T05:03:09;2.80;;;1.00;;
19059;SDS011;9663;48.996;8.334;2023-03-23T05:05:36;2.67;;;1.10;;
19059;SDS011;9663;48.996;8.334;2023-03-23T05:08:02;2.20;;;0.93;;
19059;SDS011;9663;48.996;8.334;2023-03-23T05:10:28;2.08;;;0.85;;
19059;SDS011;9663;48.996;8.334;2023-03-23T05:12:54;2.05;;;0.90;;
19059;SDS011;9663;48.996;8.334;2023-03-23T05:15:20;2.75;;;1.02;;
19059;SDS011;9663;48.996;8.334;2023-03-23T05:17:46;3.78;;;1.00;;
19059;SDS011;9663;48.996;8.334;2023-03-23T05:20:14;2.55;;;0.90;;
19059;SDS011;9663;48.996;8.334;2023-03-23T05:22:48;2.65;;;1.00;;
19059;SDS011;9663;48.996;8.334;2023-03-23T05:25:14;2.33;;;0.90;;
19059;SDS011;9663;48.996;8.334;2023-03-23T05:27:45;3.30;;;1.20;;
19059;SDS011;9663;48.996;8.334;2023-03-23T05:30:17;2.28;;;0.80;;
19059;SDS011;9663;48.996;8.334;2023-03-23T05:32:46;2.35;;;0.90;;
19059;SDS011;9663;48.996;8.334;2023-03-23T05:35:15;2.40;;;1.00;;
19059;SDS011;9663;48.996;8.334;2023-03-23T05:37:43;2.80;;;1.00;;
19059;SDS011;9663;48.996;8.334;2023-03-23T05:40:10;2.85;;;1.15;;
19059;SDS011;9663;48.996;8.334;2023-03-23T05:42:37;2.28;;;0.88;;
19059;SDS011;9663;48.996;8.334;2023-03-23T05:45:06;2.70;;;1.00;;
19059;SDS011;9663;48.996;8.334;2023-03-23T05:47:35;2.80;;;1.00;;
19059;SDS011;9663;48.996;8.334;2023-03-23T05:50:03;2.40;;;0.88;;
19059;SDS011;9663;48.996;8.334;2023-03-23T05:52:31;3.40;;;1.10;;
19059;SDS011;9663;48.996;8.334;2023-03-23T05:55:00;3.47;;;1.00;;
19059;SDS011;9663;48.996;8.334;2023-03-23T05:57:28;2.40;;;0.90;;
19059;SDS011;9663;48.996;8.334;2023-03-23T05:59:55;2.88;;;1.00;;
19059;SDS011;9663;48.996;8.334;2023-03-23T06:02:22;3.22;;;1.10;;
19059;SDS011;9663;48.996;8.334;2023-03-23T06:04:50;2.00;;;0.90;;
19059;SDS011;9663;48.996;8.334;2023-03-23T06:07:22;2.45;;;1.00;;
19059;SDS011;9663;48.996;8.334;2023-03-23T06:09:49;2.35;;;1.00;;
19059;SDS011;9663;48.996;8.334;2023-03-23T06:12:16;2.90;;;1.10;;
19059;SDS011;9663;48.996;8.334;2023-03-23T06:14:45;3.35;;;1.13;;
19059;SDS011;9663;48.996;8.334;2023-03-23T06:17:13;2.55;;;1.00;;
19059;SDS011;9663;48.996;8.334;2023-03-23T06:19:41;2.65;;;1.00;;
19059;SDS011;9663;48.996;8.334;2023-03-23T06:22:07;2.13;;;1.05;;
19059;SDS011;9663;48.996;8.334;2023-03-23T06:24:32;2.38;;;0.90;;
19059;SDS011;9663;48.996;8.334;2023-03-23T06:26:59;3.05;;;0.90;;
19059;SDS011;9663;48.996;8.334;2023-03-23T06:29:25;2.55;;;1.10;;
19059;SDS011;9663;48.996;8.334;2023-03-23T06:31:52;2.67;;;1.10;;
19059;SDS011;9663;48.996;8.334;2023-03-23T06:34:22;2.55;;;0.90;;
19059;SDS011;9663;48.996;8.334;2023-03-23T06:36:48;3.50;;;1.10;;
19059;SDS011;9663;48.996;8.334;2023-03-23T06:39:14;2.75;;;1.00;;
19059;SDS011;9663;48.996;8.334;2023-03-23T06:41:40;2.80;;;1.10;;
19059;SDS011;9663;48.996;8.334;2023-03-23T06:44:06;3.45;;;1.10;;
19059;SDS011;9663;48.996;8.334;2023-03-23T06:46:33;2.30;;;1.00;;
19059;SDS011;9663;48.996;8.334;2023-03-23T06:48:59;1.98;;;0.98;;
19059;SDS011;9663;48.996;8.334;2023-03-23T06:51:25;2.83;;;1.10;;
19059;SDS011;9663;48.996;8.334;2023-03-23T06:53:51;2.03;;;0.90;;
19059;SDS011;9663;48.996;8.334;2023-03-23T06:56:17;2.70;;;1.02;;
19059;SDS011;9663;48.996;8.334;2023-03-23T06:58:42;2.80;;;1.25;;
19059;SDS011;9663;48.996;8.334;2023-03-23T07:01:10;2.90;;;1.02;;
19059;SDS011;9663;48.996;8.334;2023-03-23T07:03:36;2.03;;;0.95;;
19059;SDS011;9663;48.996;8.334;2023-03-23T07:06:02;2.53;;;1.10;;
19059;SDS011;9663;48.996;8.334;2023-03-23T07:08:28;2.50;;;1.02;;
19059;SDS011;9663;48.996;8.334;2023-03-23T07:10:55;2.42;;;1.17;;
19059;SDS011;9663;48.996;8.334;2023-03-23T07:13:22;2.28;;;1.00;;
19059;SDS011;9663;48.996;8.334;2023-03-23T07:15:48;3.92;;;1.13;;
19059;SDS011;9663;48.996;8.334;2023-03-23T07:18:15;2.42;;;0.90;;
19059;SDS011;9663;48.996;8.334;2023-03-23T07:20:42;2.65;;;1.20;;
19059;SDS011;9663;48.996;8.334;2023-03-23T07:23:07;1.98;;;0.82;;
19059;SDS011;9663;48.996;8.334;2023-03-23T07:25:34;2.30;;;0.95;;
19059;SDS011;9663;48.996;8.334;2023-03-23T07:28:01;2.45;;;0.93;;
19059;SDS011;9663;48.996;8.334;2023-03-23T07:30:28;1.75;;;0.80;;
19059;SDS011;9663;48.996;8.334;2023-03-23T07:32:55;2.45;;;1.02;;
19059;SDS011;9663;48.996;8.334;2023-03-23T07:35:22;4.00;;;1.02;;
19059;SDS011;9663;48.996;8.334;2023-03-23T07:37:48;2.20;;;0.82;;
19059;SDS011;9663;48.996;8.334;2023-03-23T07:40:14;2.95;;;1.20;;
19059;SDS011;9663;48.996;8.334;2023-03-23T07:42:44;3.10;;;1.08;;
19059;SDS011;9663;48.996;8.334;2023-03-23T07:45:16;1.95;;;0.90;;
19059;SDS011;9663;48.996;8.334;2023-03-23T07:47:41;3.30;;;1.33;;
19059;SDS011;9663;48.996;8.334;2023-03-23T07:50:07;2.63;;;1.00;;
19059;SDS011;9663;48.996;8.334;2023-03-23T07:52:35;2.53;;;1.00;;
19059;SDS011;9663;48.996;8.334;2023-03-23T07:55:01;2.05;;;0.90;;
19059;SDS011;9663;48.996;8.334;2023-03-23T07:57:29;2.58;;;1.00;;
19059;SDS011;9663;48.996;8.334;2023-03-23T07:59:56;2.10;;;0.80;;
19059;SDS011;9663;48.996;8.334;2023-03-23T08:02:23;1.90;;;0.93;;
19059;SDS011;9663;48.996;8.334;2023-03-23T08:04:49;2.58;;;1.00;;
19059;SDS011;9663;48.996;8.334;2023-03-23T08:07:16;2.70;;;1.08;;
19059;SDS011;9663;48.996;8.334;2023-03-23T08:09:44;2.75;;;1.20;;
19059;SDS011;9663;48.996;8.334;2023-03-23T08:12:11;2.53;;;0.93;;
19059;SDS011;9663;48.996;8.334;2023-03-23T08:14:37;2.00;;;0.88;;
19059;SDS011;9663;48.996;8.334;2023-03-23T08:17:05;2.35;;;0.98;;
19059;SDS011;9663;48.996;8.334;2023-03-23T08:19:30;2.28;;;0.85;;
19059;SDS011;9663;48.996;8.334;2023-03-23T08:22:01;3.30;;;1.30;;
19059;SDS011;9663;48.996;8.334;2023-03-23T08:24:31;2.85;;;1.02;;
19059;SDS011;9663;48.996;8.334;2023-03-23T08:26:58;2.00;;;0.90;;
19059;SDS011;9663;48.996;8.334;2023-03-23T08:29:25;1.90;;;0.85;;
19059;SDS011;9663;48.996;8.334;2023-03-23T08:31:51;2.00;;;0.90;;
19059;SDS011;9663;48.996;8.334;2023-03-23T08:34:17;1.90;;;0.90;;
19059;SDS011;9663;48.996;8.334;2023-03-23T08:36:43;2.08;;;0.90;;
19059;SDS011;9663;48.996;8.334;2023-03-23T08:39:11;2.08;;;0.80;;
19059;SDS011;9663;48.996;8.334;2023-03-23T08:41:39;1.67;;;0.75;;
19059;SDS011;9663;48.996;8.334;2023-03-23T08:44:06;1.85;;;0.90;;
19059;SDS011;9663;48.996;8.334;2023-03-23T08:46:33;1.83;;;0.70;;
19059;SDS011;9663;48.996;8.334;2023-03-23T08:48:58;2.63;;;1.02;;
19059;SDS011;9663;48.996;8.334;2023-03-23T08:51:24;2.15;;;0.90;;
19059;SDS011;9663;48.996;8.334;2023-03-23T08:53:51;2.78;;;0.85;;
19059;SDS011;9663;48.996;8.334;2023-03-23T08:56:17;5.85;;;1.00;;
19059;SDS011;9663;48.996;8.334;2023-03-23T08:58:43;2.13;;;0.90;;
19059;SDS011;9663;48.996;8.334;2023-03-23T09:01:09;2.50;;;1.00;;
19059;SDS011;9663;48.996;8.334;2023-03-23T09:03:35;2.65;;;0.98;;
19059;SDS011;9663;48.996;8.334;2023-03-23T09:06:03;2.97;;;1.10;;
19059;SDS011;9663;48.996;8.334;2023-03-23T09:08:31;2.80;;;1.08;;
19059;SDS011;9663;48.996;8.334;2023-03-23T09:10:58;3.72;;;0.90;;
19059;SDS011;9663;48.996;8.334;2023-03-23T09:13:25;2.25;;;1.10;;
19059;SDS011;9663;48.996;8.334;2023-03-23T09:15:51;1.85;;;0.75;;
19059;SDS011;9663;48.996;8.334;2023-03-23T09:18:17;2.17;;;0.90;;
19059;SDS011;9663;48.996;8.334;2023-03-23T09:20:43;2.33;;;0.90;;
19059;SDS011;9663;48.996;8.334;2023-03-23T09:23:10;2.38;;;1.00;;
19059;SDS011;9663;48.996;8.334;2023-03-23T09:25:38;2.35;;;1.00;;
19059;SDS011;9663;48.996;8.334;2023-03-23T09:28:04;2.70;;;1.00;;
19059;SDS011;9663;48.996;8.334;2023-03-23T09:30:31;2.42;;;1.00;;
19059;SDS011;9663;48.996;8.334;2023-03-23T09:33:01;2.83;;;0.90;;
19059;SDS011;9663;48.996;8.334;2023-03-23T09:35:29;2.58;;;0.90;;
19059;SDS011;9663;48.996;8.334;2023-03-23T09:37:59;1.88;;;0.80;;
19059;SDS011;9663;48.996;8.334;2023-03-23T09:40:43;1.45;;;0.75;;
19059;SDS011;9663;48.996;8.334;2023-03-23T09:43:53;2.03;;;0.80;;
19059;SDS011;9663;48.996;8.334;2023-03-23T09:49:40;1.73;;;0.70;;
19059;SDS011;9663;48.996;8.334;2023-03-23T09:52:16;3.25;;;1.02;;
19059;SDS011;9663;48.996;8.334;2023-03-23T09:54:47;2.45;;;0.82;;
19059;SDS011;9663;48.996;8.334;2023-03-23T09:57:25;1.50;;;0.77;;
19059;SDS011;9663;48.996;8.334;2023-03-23T10:00:00;1.95;;;0.80;;
19059;SDS011;9663;48.996;8.334;2023-03-23T10:05:40;1.63;;;0.70;;
19059;SDS011;9663;48.996;8.334;2023-03-23T10:08:30;1.83;;;0.80;;
19059;SDS011;9663;48.996;8.334;2023-03-23T10:16:36;1.55;;;0.70;;
19059;SDS011;9663;48.996;8.334;2023-03-23T10:19:28;2.35;;;0.90;;
19059;SDS011;9663;48.996;8.334;2023-03-23T10:22:29;3.10;;;1.00;;
19059;SDS011;9663;48.996;8.334;2023-03-23T10:25:11;2.08;;;0.90;;
19059;SDS011;9663;48.996;8.334;2023-03-23T10:28:03;2.78;;;1.13;;
19059;SDS011;9663;48.996;8.334;2023-03-23T10:30:37;2.08;;;0.82;;
19059;SDS011;9663;48.996;8.334;2023-03-23T10:33:17;2.05;;;0.80;;
19059;SDS011;9663;48.996;8.334;2023-03-23T10:39:20;2.45;;;0.90;;
19059;SDS011;9663;48.996;8.334;2023-03-23T10:41:49;3.25;;;0.80;;
19059;SDS011;9663;48.996;8.334;2023-03-23T10:49:24;1.60;;;0.70;;
19059;SDS011;9663;48.996;8.334;2023-03-23T10:54:36;2.92;;;1.00;;
19059;SDS011;9663;48.996;8.334;2023-03-23T10:57:12;2.42;;;0.85;;
19059;SDS011;9663;48.996;8.334;2023-03-23T10:59:47;1.75;;;0.80;;
19059;SDS011;9663;48.996;8.334;2023-03-23T11:02:19;3.50;;;1.10;;
19059;SDS011;9663;48.996;8.334;2023-03-23T11:05:02;2.28;;;0.90;;
19059;SDS011;9663;48.996;8.334;2023-03-23T11:07:38;2.00;;;0.90;;
19059;SDS011;9663;48.996;8.334;2023-03-23T11:10:06;2.08;;;0.90;;
19059;SDS011;9663;48.996;8.334;2023-03-23T11:12:45;2.20;;;0.90;;
19059;SDS011;9663;48.996;8.334;2023-03-23T11:15:25;1.88;;;0.80;;
19059;SDS011;9663;48.996;8.334;2023-03-23T11:17:59;2.30;;;0.93;;
19059;SDS011;9663;48.996;8.334;2023-03-23T11:20:29;2.58;;;1.00;;
19059;SDS011;9663;48.996;8.334;2023-03-23T11:23:48;2.17;;;1.00;;
19059;SDS011;9663;48.996;8.334;2023-03-23T11:25:50;1.67;;;0.80;;
19059;SDS011;9663;48.996;8.334;2023-03-23T11:28:21;3.25;;;0.95;;
19059;SDS011;9663;48.996;8.334;2023-03-23T11:30:53;2.22;;;0.90;;
19059;SDS011;9663;48.996;8.334;2023-03-23T11:33:20;1.95;;;0.90;;
19059;SDS011;9663;48.996;8.334;2023-03-23T11:35:49;2.40;;;0.95;;
19059;SDS011;9663;48.996;8.334;2023-03-23T11:38:20;2.40;;;1.00;;
19059;SDS011;9663;48.996;8.334;2023-03-23T11:40:53;2.67;;;0.90;;
19059;SDS011;9663;48.996;8.334;2023-03-23T11:43:20;2.88;;;0.98;;
19059;SDS011;9663;48.996;8.334;2023-03-23T11:48:59;2.42;;;1.02;;
19059;SDS011;9663;48.996;8.334;2023-03-23T11:51:33;3.00;;;1.10;;
19059;SDS011;9663;48.996;8.334;2023-03-23T11:56:51;3.38;;;0.90;;
19059;SDS011;9663;48.996;8.334;2023-03-23T11:59:29;2.60;;;0.90;;
19059;SDS011;9663;48.996;8.334;2023-03-23T12:08:00;2.72;;;0.80;;
19059;SDS011;9663;48.996;8.334;2023-03-23T12:10:48;2.05;;;0.80;;
19059;SDS011;9663;48.996;8.334;2023-03-23T12:19:16;1.95;;;0.90;;
19059;SDS011;9663;48.996;8.334;2023-03-23T12:22:02;1.35;;;0.70;;
19059;SDS011;9663;48.996;8.334;2023-03-23T12:25:43;2.30;;;0.82;;
19059;SDS011;9663;48.996;8.334;2023-03-23T12:39:49;2.53;;;0.90;;
19059;SDS011;9663;48.996;8.334;2023-03-23T12:43:01;1.88;;;0.85;;
19059;SDS011;9663;48.996;8.334;2023-03-23T12:45:58;2.00;;;0.73;;
19059;SDS011;9663;48.996;8.334;2023-03-23T12:48:54;2.53;;;0.85;;
19059;SDS011;9663;48.996;8.334;2023-03-23T12:51:32;2.33;;;0.80;;
19059;SDS011;9663;48.996;8.334;2023-03-23T12:57:55;1.60;;;0.80;;
19059;SDS011;9663;48.996;8.334;2023-03-23T13:00:29;1.83;;;0.70;;
19059;SDS011;9663;48.996;8.334;2023-03-23T13:03:03;2.45;;;0.90;;
19059;SDS011;9663;48.996;8.334;2023-03-23T13:08:21;2.25;;;0.90;;
19059;SDS011;9663;48.996;8.334;2023-03-23T13:11:20;1.77;;;0.80;;
19059;SDS011;9663;48.996;8.334;2023-03-23T13:17:23;1.52;;;0.70;;
19059;SDS011;9663;48.996;8.334;2023-03-23T13:22:41;1.70;;;0.70;;
19059;SDS011;9663;48.996;8.334;2023-03-23T13:28:49;1.73;;;0.70;;
19059;SDS011;9663;48.996;8.334;2023-03-23T13:31:37;1.75;;;0.80;;
19059;SDS011;9663;48.996;8.334;2023-03-23T13:37:00;1.77;;;0.82;;
19059;SDS011;9663;48.996;8.334;2023-03-23T13:39:34;1.60;;;0.70;;
19059;SDS011;9663;48.996;8.334;2023-03-23T13:42:21;1.67;;;0.70;;
19059;SDS011;9663;48.996;8.334;2023-03-23T13:49:58;2.72;;;0.90;;
19059;SDS011;9663;48.996;8.334;2023-03-23T14:03:01;2.38;;;0.88;;
19059;SDS011;9663;48.996;8.334;2023-03-23T14:05:39;1.95;;;0.75;;
19059;SDS011;9663;48.996;8.334;2023-03-23T14:08:24;2.30;;;0.90;;
19059;SDS011;9663;48.996;8.334;2023-03-23T14:11:14;1.48;;;0.80;;
19059;SDS011;9663;48.996;8.334;2023-03-23T14:19:27;2.13;;;0.90;;
19059;SDS011;9663;48.996;8.334;2023-03-23T14:21:56;2.47;;;0.90;;
19059;SDS011;9663;48.996;8.334;2023-03-23T14:24:31;2.20;;;0.90;;
19059;SDS011;9663;48.996;8.334;2023-03-23T14:29:30;1.77;;;0.88;;
19059;SDS011;9663;48.996;8.334;2023-03-23T14:31:57;2.65;;;1.15;;
19059;SDS011;9663;48.996;8.334;2023-03-23T14:34:25;2.10;;;0.93;;
19059;SDS011;9663;48.996;8.334;2023-03-23T14:36:54;2.97;;;1.10;;
19059;SDS011;9663;48.996;8.334;2023-03-23T14:39:27;1.83;;;0.90;;
19059;SDS011;9663;48.996;8.334;2023-03-23T14:42:01;3.17;;;0.88;;
19059;SDS011;9663;48.996;8.334;2023-03-23T14:44:33;1.60;;;0.80;;
19059;SDS011;9663;48.996;8.334;2023-03-23T14:47:05;2.40;;;0.93;;
19059;SDS011;9663;48.996;8.334;2023-03-23T14:49:42;2.63;;;0.98;;
19059;SDS011;9663;48.996;8.334;2023-03-23T14:52:10;3.20;;;1.00;;
19059;SDS011;9663;48.996;8.334;2023-03-23T14:54:40;2.17;;;0.90;;
19059;SDS011;9663;48.996;8.334;2023-03-23T14:57:15;2.35;;;0.80;;
19059;SDS011;9663;48.996;8.334;2023-03-23T14:59:52;2.42;;;0.90;;
19059;SDS011;9663;48.996;8.334;2023-03-23T15:05:12;2.53;;;0.82;;
19059;SDS011;9663;48.996;8.334;2023-03-23T15:07:45;2.30;;;0.90;;
19059;SDS011;9663;48.996;8.334;2023-03-23T15:10:18;2.08;;;0.90;;
19059;SDS011;9663;48.996;8.334;2023-03-23T15:12:48;3.58;;;1.05;;
19059;SDS011;9663;48.996;8.334;2023-03-23T15:15:21;2.83;;;1.00;;
19059;SDS011;9663;48.996;8.334;2023-03-23T15:17:52;1.90;;;0.80;;
19059;SDS011;9663;48.996;8.334;2023-03-23T15:20:20;2.33;;;0.80;;
19059;SDS011;9663;48.996;8.334;2023-03-23T15:22:48;2.42;;;1.00;;
19059;SDS011;9663;48.996;8.334;2023-03-23T15:25:36;1.98;;;0.90;;
19059;SDS011;9663;48.996;8.334;2023-03-23T15:30:51;2.20;;;0.90;;
19059;SDS011;9663;48.996;8.334;2023-03-23T15:33:20;2.15;;;1.13;;
19059;SDS011;9663;48.996;8.334;2023-03-23T15:35:51;2.28;;;0.82;;
19059;SDS011;9663;48.996;8.334;2023-03-23T15:38:21;2.35;;;0.90;;
19059;SDS011;9663;48.996;8.334;2023-03-23T15:40:55;2.05;;;0.85;;
19059;SDS011;9663;48.996;8.334;2023-03-23T15:43:25;2.55;;;1.05;;
19059;SDS011;9663;48.996;8.334;2023-03-23T15:45:59;3.05;;;1.25;;
19059;SDS011;9663;48.996;8.334;2023-03-23T15:48:50;2.65;;;1.00;;
19059;SDS011;9663;48.996;8.334;2023-03-23T15:51:16;2.53;;;1.10;;
19059;SDS011;9663;48.996;8.334;2023-03-23T15:53:44;2.95;;;1.20;;
19059;SDS011;9663;48.996;8.334;2023-03-23T15:56:11;2.80;;;1.17;;
19059;SDS011;9663;48.996;8.334;2023-03-23T15:58:38;3.33;;;1.20;;
19059;SDS011;9663;48.996;8.334;2023-03-23T16:01:15;3.15;;;1.20;;
19059;SDS011;9663;48.996;8.334;2023-03-23T16:04:10;3.58;;;1.40;;
19059;SDS011;9663;48.996;8.334;2023-03-23T16:06:42;3.00;;;1.30;;
19059;SDS011;9663;48.996;8.334;2023-03-23T16:09:16;2.70;;;1.10;;
19059;SDS011;9663;48.996;8.334;2023-03-23T16:11:44;3.47;;;1.20;;
19059;SDS011;9663;48.996;8.334;2023-03-23T16:14:10;2.95;;;1.02;;
19059;SDS011;9663;48.996;8.334;2023-03-23T16:16:37;4.07;;;1.00;;
19059;SDS011;9663;48.996;8.334;2023-03-23T16:19:13;3.13;;;1.27;;
19059;SDS011;9663;48.996;8.334;2023-03-23T16:21:40;3.15;;;1.10;;
19059;SDS011;9663;48.996;8.334;2023-03-23T16:24:07;3.40;;;1.20;;
19059;SDS011;9663;48.996;8.334;2023-03-23T16:26:34;3.03;;;1.30;;
19059;SDS011;9663;48.996;8.334;2023-03-23T16:29:01;3.05;;;1.00;;
19059;SDS011;9663;48.996;8.334;2023-03-23T16:31:33;2.60;;;1.10;;
19059;SDS011;9663;48.996;8.334;2023-03-23T16:33:58;2.80;;;1.20;;
19059;SDS011;9663;48.996;8.334;2023-03-23T16:36:24;3.13;;;1.10;;
19059;SDS011;9663;48.996;8.334;2023-03-23T16:38:50;2.63;;;1.13;;
19059;SDS011;9663;48.996;8.334;2023-03-23T16:41:16;2.50;;;0.98;;
19059;SDS011;9663;48.996;8.334;2023-03-23T16:43:42;3.28;;;1.35;;
19059;SDS011;9663;48.996;8.334;2023-03-23T16:46:08;3.22;;;1.33;;
19059;SDS011;9663;48.996;8.334;2023-03-23T16:48:37;2.92;;;1.20;;
19059;SDS011;9663;48.996;8.334;2023-03-23T16:51:03;2.80;;;1.17;;
19059;SDS011;9663;48.996;8.334;2023-03-23T16:53:29;3.22;;;1.35;;
19059;SDS011;9663;48.996;8.334;2023-03-23T16:55:54;2.70;;;1.15;;
19059;SDS011;9663;48.996;8.334;2023-03-23T16:58:21;3.40;;;1.23;;
19059;SDS011;9663;48.996;8.334;2023-03-23T17:00:48;2.63;;;1.10;;
19059;SDS011;9663;48.996;8.334;2023-03-23T17:03:19;3.33;;;1.25;;
19059;SDS011;9663;48.996;8.334;2023-03-23T17:05:46;3.22;;;1.38;;
19059;SDS011;9663;48.996;8.334;2023-03-23T17:08:14;4.75;;;1.25;;
19059;SDS011;9663;48.996;8.334;2023-03-23T17:10:41;3.72;;;1.52;;
19059;SDS011;9663;48.996;8.334;2023-03-23T17:13:08;3.13;;;1.20;;
19059;SDS011;9663;48.996;8.334;2023-03-23T17:15:37;3.22;;;1.38;;
19059;SDS011;9663;48.996;8.334;2023-03-23T17:18:05;3.92;;;1.40;;
19059;SDS011;9663;48.996;8.334;2023-03-23T17:20:32;3.88;;;1.52;;
19059;SDS011;9663;48.996;8.334;2023-03-23T17:22:59;2.75;;;1.20;;
19059;SDS011;9663;48.996;8.334;2023-03-23T17:25:28;2.90;;;1.30;;
19059;SDS011;9663;48.996;8.334;2023-03-23T17:27:55;3.38;;;1.33;;
19059;SDS011;9663;48.996;8.334;2023-03-23T17:30:21;2.88;;;1.25;;
19059;SDS011;9663;48.996;8.334;2023-03-23T17:32:47;2.72;;;1.20;;
19059;SDS011;9663;48.996;8.334;2023-03-23T17:35:13;3.13;;;1.33;;